Wittmundhafen Air Base

ETNT · 下萨克森, 德国

METAR的历史 ETNT · Wittmundhafen Air Base

下面你可以看到过去几天的METARs。 选择年份以浏览从2007年开始的旧METAR。

2022年12月3日

时间 代码 天气 温度 能见度 天花板 METAR/SPECI
23:20
U
0 °C 0 m - 100° 100° 5 kt SPECI ETNT 032220Z AUTO 10005KT //// // ////// 00/M02 Q1021 ///
23:20
U
0 °C 0 m - 100° 100° 5 kt METAR ETNT 032220Z AUTO 10005KT //// // ////// 00/M02 Q1021 ///
22:20
U
0 °C 0 m - 090° 090° 6 kt METAR ETNT 032120Z AUTO 09006KT //// // ////// M00/M02 Q1022 ///
21:20
U
0 °C 0 m - 090° 090° 7 kt METAR ETNT 032020Z AUTO 09007KT //// // ////// 00/M02 Q1022 ///
20:20
U
1 °C 0 m - 100° 100° 9 kt METAR ETNT 031920Z AUTO 10009KT //// // ////// 01/M02 Q1022 ///
19:20
U
1 °C 0 m - 070° 070° 8 kt METAR ETNT 031820Z AUTO 07008KT //// // ////// 01/M01 Q1022 ///
18:20
U
2 °C 0 m - 070° 070° 9 kt METAR ETNT 031720Z AUTO 07009KT //// // ////// 02/M01 Q1022 ///
17:20
U
2 °C 0 m - 080° 080° 9 kt METAR ETNT 031620Z AUTO 08009KT //// // ////// 02/M01 Q1022 ///
16:20
U
2 °C 0 m - 090° 090° 6 kt METAR ETNT 031520Z AUTO 09006KT //// // ////// 02/M01 Q1022 ///
15:20
U
2 °C 0 m - 090° 090° 8 kt METAR ETNT 031420Z AUTO 09008KT //// // ////// 02/M01 Q1023 ///
14:20
U
2 °C 0 m - 080° 080° 10 kt METAR ETNT 031320Z AUTO 08010KT //// // ////// 02/M01 Q1023 ///
13:20
U
2 °C 0 m - 080° 080° 8 kt METAR ETNT 031220Z AUTO 08008KT //// // ////// 02/M01 Q1023 ///
12:20
U
2 °C 0 m - 090° 090° 8 kt METAR ETNT 031120Z AUTO 09008KT //// // ////// 02/M01 Q1024 ///
11:20
U
2 °C 0 m - 090° 090° 7 kt METAR ETNT 031020Z AUTO 09007KT //// // ////// 02/M01 Q1025 ///
10:20
U
2 °C 0 m - 080° 080° 9 kt METAR ETNT 030920Z AUTO 08009KT //// // ////// 02/M01 Q1025 ///
09:20
U
2 °C 0 m - 090° 090° 8 kt METAR ETNT 030820Z AUTO 09008KT //// // ////// 02/M01 Q1025 ///
08:20
U
2 °C 0 m - 090° 090° 11 kt METAR ETNT 030720Z AUTO 09011KT //// // ////// 02/M01 Q1025 ///
07:20
U
3 °C 0 m - 090° 090° 11 kt METAR ETNT 030620Z AUTO 09011KT //// // ////// 03/M00 Q1025 ///
06:20
U
3 °C 0 m - 070° 070° 12 kt METAR ETNT 030520Z AUTO 07012KT //// // ////// 03/00 Q1025 ///
05:20
U
3 °C 0 m - 070° 070° 10 kt METAR ETNT 030420Z AUTO 07010KT //// // ////// 03/01 Q1025 ///
04:20
U
4 °C 0 m - 080° 080° 8 - 18 kt METAR ETNT 030320Z AUTO 08008G18KT //// // ////// 04/01 Q1025 ///
03:20
U
4 °C 0 m - 080° 080° 12 kt METAR ETNT 030220Z AUTO 08012KT //// // ////// 04/01 Q1025 ///
02:20
U
4 °C 0 m - 070° 070° 9 kt METAR ETNT 030120Z AUTO 07009KT //// // ////// 04/02 Q1025 ///
01:20
U
5 °C 0 m - 070° 070° 10 kt METAR ETNT 030020Z AUTO 07010KT //// // ////// 05/02 Q1026 ///
00:20
U
5 °C 0 m - 070° 070° 7 kt METAR ETNT 022320Z AUTO 07007KT //// // ////// 05/03 Q1026 ///

2022年12月2日

时间 代码 天气 温度 能见度 天花板 METAR/SPECI
23:20
U
5 °C 0 m - 060° 060° 9 - 20 kt METAR ETNT 022220Z AUTO 06009G20KT //// // ////// 05/03 Q1026 ///
22:20
U
4 °C 0 m - 060° 060° 9 kt METAR ETNT 022120Z AUTO 06009KT //// // ////// 04/02 Q1027 ///
21:20
U
3 °C 0 m - 050° 050° 6 kt METAR ETNT 022020Z AUTO 05006KT //// // ////// 03/00 Q1027 ///
20:20
U
3 °C 0 m - 060° 060° 6 kt METAR ETNT 021920Z AUTO 06006KT //// // ////// 03/M01 Q1027 ///
19:20
U
2 °C 0 m - 070° 070° 6 kt METAR ETNT 021820Z AUTO 07006KT //// // ////// 02/M01 Q1028 ///
18:20
U
2 °C 0 m - 080° 080° 11 kt METAR ETNT 021720Z AUTO 08011KT //// // ////// 02/M01 Q1028 ///
17:20
U
2 °C 0 m - 090° 090° 12 kt METAR ETNT 021620Z AUTO 09012KT //// // ////// 02/M02 Q1027 ///
16:20
U
2 °C 0 m - 080° 080° 9 kt METAR ETNT 021520Z AUTO 08009KT //// // ////// 02/00 Q1027 ///
15:20
U
2 °C 0 m - 080° 080° 8 kt METAR ETNT 021420Z AUTO 08008KT //// // ////// 02/00 Q1027 ///
14:20
U
2 °C 0 m - 080° 080° 10 kt METAR ETNT 021320Z AUTO 08010KT //// // ////// 02/M00 Q1027 ///
13:20
V
2 °C 9 km 10.000 ft 080° 080° 10 kt METAR ETNT 021220Z 08010KT 9000 FEW009 SCT030 BKN100 02/M01 Q1027 BLACKBLU
12:20
M
2 °C 9 km 1.500 ft 090° 090° 11 kt METAR ETNT 021120Z 09011KT 9000 FEW009 BKN015 BKN060 02/M00 Q1027 BLACKWHT
12:11
M
2 °C 9 km 1.100 ft 090° 090° 10 kt METAR ETNT 021111Z 09010KT 9000 BKN011 BKN060 02/M00 Q1027 BLACKGRN
11:20
V
2 °C 8 km 6.000 ft 080° 080° 10 kt METAR ETNT 021020Z 08010KT 8000 SCT009 BKN060 02/01 Q1027 BLACKBLU
10:51
I
2 °C 8 km 900 ft 070° 070° 7 kt METAR ETNT 020951Z 07007KT 8000 BKN009 BKN060 02/01 Q1027 BLACKGRN
10:20
I
1 °C 4 km 900 ft 080° 080° 8 kt METAR ETNT 020920Z 08008KT 4000 -SN BR FEW004 BKN009 BKN050 01/01 Q1027 BLACKGRN
09:20
L
0 °C 3 km 400 ft 080° 080° 7 kt METAR ETNT 020820Z 08007KT 3000 -SN BR BKN004 BKN020 00/M00 Q1027 BLACKYLO
08:20
I
0 °C 4,5 km 500 ft 080° 080° 8 kt METAR ETNT 020720Z 08008KT 4500 -SN BR BKN005 BKN015 00/M00 Q1027 BLACKYLO
07:50
I
1 °C 7 km 500 ft 080° 080° 11 kt METAR ETNT 020650Z 08011KT 7000 BKN005 BKN015 01/M01 Q1027 BLACKYLO
07:20
I
2 °C 7 km 900 ft 080° 080° 11 kt METAR ETNT 020620Z 08011KT 7000 BKN009 BKN015 02/M00 Q1027 BLACKGRN
06:20
M
2 °C 7 km 1.000 ft 080° 080° 7 kt METAR ETNT 020520Z 08007KT 7000 BKN010 BKN030 02/00 Q1026 BLACKGRN
05:20
U
3 °C 0 m - 070° 070° 6 kt METAR ETNT 020420Z AUTO 07006KT //// // ////// 03/01 Q1027 ///
04:20
U
2 °C 0 m - 050° 050° 3 kt METAR ETNT 020320Z AUTO 05003KT //// // ////// 02/01 Q1027 ///
03:20
U
2 °C 0 m - 070° 070° 2 kt METAR ETNT 020220Z AUTO 07002KT //// // ////// 02/01 Q1027 ///
02:20
U
2 °C 0 m - Var Var 3 kt METAR ETNT 020120Z AUTO VRB03KT //// // ////// 02/00 Q1027 ///
01:20
U
2 °C 0 m - 100° 100° 3 kt METAR ETNT 020020Z AUTO 10003KT //// // ////// 02/00 Q1028 ///
00:20
U
2 °C 0 m - 080° 080° 4 kt METAR ETNT 012320Z AUTO 08004KT //// // ////// 02/01 Q1028 ///

2022年12月1日

时间 代码 天气 温度 能见度 天花板 METAR/SPECI
23:20
U
2 °C 0 m - 100° 100° 4 kt METAR ETNT 012220Z AUTO 10004KT //// // ////// 02/01 Q1028 ///
22:20
M
3 °C 7 km 4.000 ft 090° 090° 5 kt METAR ETNT 012120Z 09005KT 7000 FEW015 BKN040 03/01 Q1028 BLACKWHT
21:20
M
3 °C 7 km 1.700 ft 100° 100° 4 kt METAR ETNT 012020Z 10004KT 7000 BKN017 03/01 Q1028 BLACKWHT
20:20
M
3 °C 7 km 2.000 ft 090° 090° 2 kt METAR ETNT 011920Z 09002KT 7000 BKN020 BKN060 03/02 Q1028 BLACKWHT
19:20
M
4 °C 7 km 6.000 ft 090° 090° 4 kt METAR ETNT 011820Z 09004KT 7000 SCT018 BKN060 04/01 Q1028 BLACKWHT
18:20
M
4 °C 7 km 6.000 ft 100° 100° 4 kt METAR ETNT 011720Z 10004KT 7000 SCT020 BKN060 04/02 Q1028 BLACKWHT
17:20
M
4 °C 6 km 1.500 ft 080° 080° 6 kt METAR ETNT 011620Z 08006KT 6000 BKN015 04/02 Q1028 BLACKWHT
16:20
M
4 °C 7 km 6.000 ft 080° 080° 4 kt METAR ETNT 011520Z 08004KT 7000 SCT020 BKN060 04/02 Q1028 BLACKWHT
15:20
M
5 °C 7 km 3.500 ft 070° 070° 5 kt METAR ETNT 011420Z 07005KT 7000 BKN035 05/02 Q1028 BLACKWHT
14:20
M
5 °C 7 km 4.000 ft 080° 080° 6 kt METAR ETNT 011320Z 08006KT 7000 SCT030 BKN040 05/03 Q1028 BLACKWHT
13:20
M
5 °C 7 km 3.000 ft 100° 100° 5 kt METAR ETNT 011220Z 10005KT 7000 FEW012 BKN030 BKN045 05/03 Q1028 BLACKWHT
12:20
M
5 °C 5 km 3.800 ft 090° 090° 4 kt METAR ETNT 011120Z 09004KT 5000 BR SCT009 BKN038 05/03 Q1028 BLACKWHT
11:20
I
5 °C 4,5 km 900 ft 090° 090° 4 kt METAR ETNT 011020Z 09004KT 4500 BR BKN009 BKN030 05/04 Q1029 BLACKGRN

我们和第三方通过cookies跟踪您在我们网站上的互联网行为。如果你继续,我们认为你同意我们的饼干政策